createdAt,value
2022-10-02T00:01:35.443Z,99.90
2022-10-02T00:05:43.610Z,99.90
2022-10-02T00:09:50.848Z,99.90
2022-10-02T00:13:57.920Z,99.90
2022-10-02T00:18:06.073Z,99.90
2022-10-02T00:22:20.661Z,99.90
2022-10-02T00:26:27.986Z,99.90
2022-10-02T00:30:38.755Z,99.90
2022-10-02T00:34:55.577Z,99.90
2022-10-02T00:39:09.586Z,99.90
2022-10-02T00:43:21.336Z,99.90
2022-10-02T00:47:35.230Z,99.90
2022-10-02T00:52:03.990Z,99.90
2022-10-02T00:56:17.530Z,99.90
2022-10-02T01:00:23.513Z,99.90
2022-10-02T01:04:32.869Z,99.90
2022-10-02T01:08:38.555Z,99.90
2022-10-02T01:12:42.645Z,99.90
2022-10-02T01:16:46.962Z,99.90
2022-10-02T01:20:53.788Z,99.90
2022-10-02T01:24:59.910Z,99.90
2022-10-02T01:29:04.102Z,99.90
2022-10-02T01:33:08.413Z,99.90
2022-10-02T01:37:13.114Z,99.90
2022-10-02T01:41:39.782Z,99.90
2022-10-02T01:46:09.076Z,99.90
2022-10-02T01:50:29.185Z,99.90
2022-10-02T01:58:49.066Z,99.90
2022-10-02T02:02:59.591Z,99.90
2022-10-02T02:07:12.399Z,99.90
2022-10-02T02:11:19.481Z,99.90
2022-10-02T02:15:29.563Z,99.90
2022-10-02T02:19:38.715Z,99.90
2022-10-02T02:23:44.680Z,99.90
2022-10-02T02:27:52.108Z,99.90
2022-10-02T02:32:40.138Z,99.90
2022-10-02T02:36:48.536Z,99.90
2022-10-02T02:40:53.298Z,99.90
2022-10-02T02:45:01.698Z,99.90
2022-10-02T02:49:11.940Z,99.90
2022-10-02T02:53:46.866Z,99.90
2022-10-02T02:58:11.589Z,99.90
2022-10-02T03:02:15.598Z,99.90
2022-10-02T03:07:00.005Z,99.90
2022-10-02T03:11:13.993Z,99.90
2022-10-02T03:15:39.677Z,99.90
2022-10-02T03:19:48.470Z,99.90
2022-10-02T03:24:02.752Z,99.90
2022-10-02T03:28:11.693Z,99.90
2022-10-02T03:32:37.443Z,99.90
2022-10-02T03:41:37.057Z,99.90
2022-10-02T03:45:51.081Z,99.90
2022-10-02T03:49:55.391Z,99.90
2022-10-02T03:53:58.889Z,99.90
2022-10-02T03:58:11.307Z,99.90
2022-10-02T04:02:27.524Z,99.90
2022-10-02T04:07:15.332Z,99.90
2022-10-02T04:11:25.624Z,99.90
2022-10-02T04:15:38.011Z,99.90
2022-10-02T04:19:46.654Z,99.90
2022-10-02T04:23:53.589Z,99.90
2022-10-02T04:28:12.767Z,99.90
2022-10-02T04:32:27.168Z,99.90
2022-10-02T04:36:41.965Z,99.90
2022-10-02T04:41:02.726Z,99.90
2022-10-02T04:45:35.631Z,99.90
2022-10-02T04:50:12.578Z,99.90
2022-10-02T04:54:36.543Z,99.90
2022-10-02T04:59:09.180Z,99.90
2022-10-02T05:03:28.586Z,99.90
2022-10-02T05:07:47.483Z,99.90
2022-10-02T05:12:12.602Z,99.90
2022-10-02T05:16:36.859Z,99.90
2022-10-02T05:21:04.944Z,99.90
2022-10-02T05:25:38.274Z,99.90
2022-10-02T05:30:07.432Z,99.90
2022-10-02T05:34:33.734Z,99.90
2022-10-02T05:39:02.531Z,99.90
2022-10-02T05:43:09.639Z,99.90
2022-10-02T05:47:20.731Z,99.90
2022-10-02T05:51:36.987Z,99.90
2022-10-02T05:55:48.282Z,99.90
2022-10-02T06:00:01.867Z,99.90
2022-10-02T06:04:13.872Z,99.90
2022-10-02T06:08:21.635Z,99.90
2022-10-02T06:12:33.441Z,99.90
2022-10-02T06:16:44.304Z,99.90
2022-10-02T06:20:55.660Z,99.90
2022-10-02T06:25:04.728Z,99.90
2022-10-02T06:29:19.178Z,99.90
2022-10-02T06:33:27.920Z,99.90
2022-10-02T06:37:49.499Z,99.90
2022-10-02T06:42:01.699Z,99.90
2022-10-02T06:46:16.500Z,99.90
2022-10-02T06:50:38.816Z,99.90
2022-10-02T06:54:59.132Z,99.90
2022-10-02T06:59:15.437Z,99.90
2022-10-02T07:03:34.046Z,99.90
2022-10-02T07:07:51.503Z,99.90
2022-10-02T07:12:06.104Z,99.90
2022-10-02T07:16:39.842Z,99.90
2022-10-02T07:20:52.741Z,99.90
2022-10-02T07:25:21.778Z,99.90
2022-10-02T07:29:39.599Z,99.90
2022-10-02T07:34:08.423Z,99.90
2022-10-02T07:38:43.636Z,99.90
2022-10-02T07:43:11.746Z,99.90
2022-10-02T07:47:26.609Z,99.90
2022-10-02T07:51:50.438Z,99.90
2022-10-02T07:55:56.989Z,99.90
2022-10-02T08:00:06.100Z,99.90
2022-10-02T08:04:21.336Z,99.90
2022-10-02T08:08:31.040Z,99.90
2022-10-02T08:12:41.576Z,99.90
2022-10-02T08:16:52.345Z,99.90
2022-10-02T08:20:58.116Z,99.90
2022-10-02T08:25:06.595Z,99.90
2022-10-02T08:29:16.713Z,99.90
2022-10-02T08:33:22.416Z,99.90
2022-10-02T08:37:37.822Z,99.90
2022-10-02T08:42:29.795Z,99.90
2022-10-02T08:47:02.542Z,99.90
2022-10-02T08:51:44.626Z,99.90
2022-10-02T08:56:11.647Z,99.90
2022-10-02T09:00:23.863Z,99.90
2022-10-02T09:05:13.759Z,98.60
2022-10-02T09:09:59.004Z,97.50
2022-10-02T09:14:31.900Z,96.50
2022-10-02T09:18:55.856Z,92.80
2022-10-02T09:23:26.482Z,93.80
2022-10-02T09:28:21.608Z,92.80
2022-10-02T09:32:57.842Z,93.50
2022-10-02T09:37:32.148Z,92.80
2022-10-02T09:42:15.711Z,95.00
2022-10-02T09:47:14.227Z,92.90
2022-10-02T09:51:47.604Z,93.10
2022-10-02T09:56:18.236Z,94.50
2022-10-02T10:00:37.986Z,95.00
2022-10-02T10:05:11.372Z,95.50
2022-10-02T10:09:50.231Z,95.80
2022-10-02T10:14:25.418Z,95.50
2022-10-02T10:19:06.339Z,99.70
2022-10-02T10:23:28.023Z,99.90
2022-10-02T10:28:12.701Z,99.90
2022-10-02T10:33:14.689Z,99.90
2022-10-02T10:38:08.831Z,99.90
2022-10-02T10:43:07.507Z,99.90
2022-10-02T10:47:37.068Z,99.90
2022-10-02T10:51:50.734Z,99.90
2022-10-02T10:56:37.128Z,98.70
2022-10-02T11:00:55.780Z,99.50
2022-10-02T11:05:15.612Z,98.40
2022-10-02T11:09:47.893Z,99.90
2022-10-02T11:14:09.544Z,99.30
2022-10-02T11:18:31.368Z,99.90
2022-10-02T11:22:51.238Z,99.90
2022-10-02T11:27:11.903Z,99.90
2022-10-02T11:31:32.518Z,99.90
2022-10-02T11:35:58.915Z,99.90
2022-10-02T11:40:24.566Z,99.90
2022-10-02T11:45:02.301Z,99.90
2022-10-02T11:49:38.398Z,99.90
2022-10-02T11:54:29.565Z,99.90
2022-10-02T11:58:48.152Z,99.90
2022-10-02T12:03:02.234Z,99.90
2022-10-02T12:07:28.454Z,99.90
2022-10-02T12:11:42.475Z,99.90
2022-10-02T12:15:56.057Z,99.90
2022-10-02T12:20:36.552Z,99.90
2022-10-02T12:25:11.352Z,99.90
2022-10-02T12:29:30.467Z,98.70
2022-10-02T12:33:44.394Z,99.50
2022-10-02T12:38:04.026Z,99.00
2022-10-02T12:42:27.082Z,99.20
2022-10-02T12:47:00.436Z,99.90
2022-10-02T12:51:35.726Z,99.10
2022-10-02T12:56:15.814Z,99.90
2022-10-02T13:00:26.842Z,98.90
2022-10-02T13:05:08.009Z,98.00
2022-10-02T13:09:28.101Z,98.70
2022-10-02T13:13:57.378Z,99.90
2022-10-02T13:18:14.755Z,99.90
2022-10-02T13:22:28.387Z,99.10
2022-10-02T13:26:39.756Z,98.30
2022-10-02T13:30:55.781Z,99.10
2022-10-02T13:35:48.562Z,98.40
2022-10-02T13:40:20.281Z,99.80
2022-10-02T13:44:34.690Z,98.80
2022-10-02T13:48:58.558Z,99.90
2022-10-02T13:53:24.651Z,98.00
2022-10-02T13:57:43.086Z,92.50
2022-10-02T14:02:00.974Z,76.30
2022-10-02T14:06:14.754Z,72.80
2022-10-02T14:10:32.033Z,73.40
2022-10-02T14:14:58.385Z,72.20
2022-10-02T14:19:23.650Z,72.70
2022-10-02T14:23:46.590Z,67.00
2022-10-02T14:28:20.451Z,69.00
2022-10-02T14:32:47.400Z,75.80
2022-10-02T14:37:01.514Z,85.30
2022-10-02T14:41:26.792Z,88.70
2022-10-02T14:45:58.528Z,91.90
2022-10-02T14:50:24.757Z,93.80
2022-10-02T14:54:46.480Z,93.70
2022-10-02T14:59:10.334Z,94.90
2022-10-02T15:03:43.678Z,95.30
2022-10-02T15:07:47.907Z,97.80
2022-10-02T15:12:16.260Z,99.40
2022-10-02T15:16:43.919Z,99.60
2022-10-02T15:21:01.024Z,99.90
2022-10-02T15:25:18.551Z,99.90
2022-10-02T15:29:33.612Z,99.90
2022-10-02T15:33:46.276Z,99.90
2022-10-02T15:38:09.137Z,99.90
2022-10-02T15:42:17.992Z,99.90
2022-10-02T15:46:32.533Z,99.90
2022-10-02T15:50:52.310Z,99.90
2022-10-02T15:55:12.479Z,99.90
2022-10-02T15:59:41.842Z,99.90
2022-10-02T16:03:51.096Z,99.90
2022-10-02T16:08:27.870Z,99.90
2022-10-02T16:12:57.429Z,99.90
2022-10-02T16:17:37.366Z,99.90
2022-10-02T16:22:02.136Z,99.90
2022-10-02T16:26:25.132Z,99.90
2022-10-02T16:30:36.676Z,99.90
2022-10-02T16:34:53.912Z,99.90
2022-10-02T16:39:17.487Z,99.90
2022-10-02T16:44:02.821Z,99.90
2022-10-02T16:48:25.113Z,99.90
2022-10-02T16:52:35.778Z,99.90
2022-10-02T16:56:50.055Z,99.90
2022-10-02T17:01:03.702Z,99.90
2022-10-02T17:05:29.274Z,99.90
2022-10-02T17:09:42.126Z,99.90
2022-10-02T17:14:02.557Z,99.90
2022-10-02T17:18:25.752Z,99.90
2022-10-02T17:22:39.020Z,99.90
2022-10-02T17:26:46.406Z,99.90
2022-10-02T17:31:26.252Z,99.90
2022-10-02T17:35:42.477Z,99.90
2022-10-02T17:40:04.984Z,99.90
2022-10-02T17:44:24.040Z,99.90
2022-10-02T17:48:44.353Z,99.90
2022-10-02T17:53:12.710Z,99.90
2022-10-02T17:57:38.704Z,99.90
2022-10-02T18:01:53.018Z,99.90
2022-10-02T18:06:07.821Z,99.90
2022-10-02T18:10:27.246Z,99.90
2022-10-02T18:15:04.483Z,99.90
2022-10-02T18:19:28.152Z,99.90
2022-10-02T18:23:59.202Z,99.90
2022-10-02T18:28:16.516Z,99.90
2022-10-02T18:33:05.678Z,99.90
2022-10-02T18:37:25.945Z,99.90
2022-10-02T18:41:46.145Z,99.90
2022-10-02T18:46:07.627Z,99.90
2022-10-02T18:50:34.301Z,99.90
2022-10-02T18:55:03.595Z,99.90
2022-10-02T18:59:27.724Z,99.90
2022-10-02T19:03:40.713Z,99.90
2022-10-02T19:07:51.262Z,99.90
2022-10-02T19:12:28.201Z,99.90
2022-10-02T19:16:34.619Z,99.90
2022-10-02T19:20:57.162Z,99.90
2022-10-02T19:25:12.357Z,99.90
2022-10-02T19:29:37.168Z,99.90
2022-10-02T19:34:01.104Z,99.90
2022-10-02T19:38:37.352Z,99.90
2022-10-02T19:47:41.341Z,99.90
2022-10-02T19:52:03.661Z,99.90
2022-10-02T19:56:14.027Z,99.90
2022-10-02T20:00:19.788Z,99.90
2022-10-02T20:04:28.527Z,99.90
2022-10-02T20:08:37.542Z,99.90
2022-10-02T20:12:49.166Z,99.90
2022-10-02T20:17:13.036Z,99.90
2022-10-02T20:21:28.115Z,99.90
2022-10-02T20:25:37.128Z,99.90
2022-10-02T20:29:47.295Z,99.90
2022-10-02T20:33:54.762Z,99.90
2022-10-02T20:38:04.665Z,99.90
2022-10-02T20:42:15.944Z,99.90
2022-10-02T20:46:53.162Z,99.90
2022-10-02T20:51:06.804Z,99.90
2022-10-02T20:55:20.737Z,99.90
2022-10-02T21:00:05.610Z,99.90
2022-10-02T21:04:36.333Z,99.90
2022-10-02T21:09:16.205Z,99.90
2022-10-02T21:13:44.817Z,99.90
2022-10-02T21:18:26.623Z,99.90
2022-10-02T21:22:57.727Z,99.90
2022-10-02T21:27:27.216Z,99.90
2022-10-02T21:31:51.899Z,99.90
2022-10-02T21:35:58.947Z,99.90
2022-10-02T21:40:50.358Z,99.90
2022-10-02T21:45:32.987Z,99.90
2022-10-02T21:50:09.478Z,99.90
2022-10-02T21:54:58.737Z,99.90
2022-10-02T21:59:30.177Z,99.90
2022-10-02T22:03:52.376Z,99.90
2022-10-02T22:08:10.736Z,99.90
2022-10-02T22:12:42.158Z,99.90
2022-10-02T22:16:53.024Z,99.90
2022-10-02T22:21:20.254Z,99.90
2022-10-02T22:25:40.700Z,99.90
2022-10-02T22:29:48.879Z,99.90
2022-10-02T22:34:20.354Z,99.90
2022-10-02T22:38:37.664Z,99.90
2022-10-02T22:42:43.697Z,99.90
2022-10-02T22:46:54.002Z,99.90
2022-10-02T22:51:03.437Z,99.90
2022-10-02T22:55:11.201Z,99.90
2022-10-02T22:59:20.074Z,99.90
2022-10-02T23:03:33.218Z,99.90
2022-10-02T23:07:43.911Z,99.90
2022-10-02T23:11:57.780Z,99.90
2022-10-02T23:16:08.796Z,99.90
2022-10-02T23:20:22.045Z,99.90
2022-10-02T23:24:31.684Z,99.90
2022-10-02T23:28:46.004Z,99.90
2022-10-02T23:32:55.083Z,99.90
2022-10-02T23:37:06.987Z,99.90
2022-10-02T23:41:35.974Z,99.90
2022-10-02T23:45:44.117Z,99.90
2022-10-02T23:49:52.475Z,99.90
2022-10-02T23:54:32.226Z,99.90
2022-10-02T23:59:05.454Z,99.90
